LFKC

Calvi-Sainte-Catherine Airport

Calvi/Sainte-Catherine, France
TAF LFKC 181400Z 1815/1915 22012KT CAVOK TX13/1815Z TN05/1821Z TEMPO 1815/1817 22012G22KT BECMG 1817/1820 18004KT
Issued Valid From Valid To
Jan-18 @ 14:00 UTC
(13 hours ago)
Jan-18 @ 15:00 UTC
(12 hours ago)
Jan-19 @ 15:00 UTC
(in 12 hours)
Expired Click to View Jan-18 @ 15:00 to Jan-18 @ 17:00
TAF LFKC 181400Z 1815/1915 22012KT CAVOK TX13/1815Z TN05/1821Z
Wind Visibility Clouds
220° at 12 knots 10,000+ meters
  • No significant clouds
Expired Click to View Jan-18 @ 15:00 to Jan-18 @ 17:00
TEMPO 1815/1817 22012G22KT
Wind
220° at 12 knots
 Gusting to 22 knots
Becoming Jan-18 @ 17:00 to Jan-19 @ 15:00
BECMG 1817/1820 18004KT
Wind Visibility Clouds
180° at 4 knots 10,000+ meters
  • No significant clouds
TAF LFKC 181400Z 1815/1915 22012KT CAVOK TX13/1815Z TN05/1821Z TEMPO 1815/1817 22012G22KT BECMG 1817/1820 18004KT
Issued Jan-18 @ 14:00 UTC
(13 hours ago)
Valid From Jan-18 @ 15:00 UTC
(12 hours ago)
Valid To Jan-19 @ 15:00 UTC
(in 12 hours)
Jan-18 @ 15:00 - Jan-18 @ 17:00
Wind Visibility
220° at 12 knots 10,000+ meters
Clouds
  • No significant clouds
Jan-18 @ 15:00 - Jan-18 @ 17:00
Wind
220° at 12 knots
 Gusting to 22 knots
Becoming Jan-18 @ 17:00 - Jan-19 @ 15:00
Wind Visibility
180° at 4 knots 10,000+ meters
Clouds
  • No significant clouds